createdAt,value
2022-10-15T00:00:10.797Z,86.65
2022-10-15T00:02:57.040Z,86.69
2022-10-15T00:05:23.301Z,86.72
2022-10-15T00:07:49.717Z,86.90
2022-10-15T00:10:16.572Z,87.07
2022-10-15T00:12:42.823Z,86.84
2022-10-15T00:15:10.025Z,86.80
2022-10-15T00:17:37.127Z,87.05
2022-10-15T00:20:06.845Z,86.98
2022-10-15T00:22:33.125Z,87.23
2022-10-15T00:24:59.405Z,87.11
2022-10-15T00:27:26.129Z,87.20
2022-10-15T00:29:52.428Z,87.27
2022-10-15T00:32:18.725Z,87.54
2022-10-15T00:34:45.954Z,87.43
2022-10-15T00:37:12.283Z,87.45
2022-10-15T00:39:38.549Z,87.58
2022-10-15T00:42:04.975Z,87.52
2022-10-15T00:44:31.263Z,87.39
2022-10-15T00:47:15.837Z,87.63
2022-10-15T00:49:50.450Z,87.74
2022-10-15T00:52:22.003Z,87.96
2022-10-15T00:54:59.012Z,87.85
2022-10-15T00:57:26.145Z,87.75
2022-10-15T00:59:57.776Z,87.77
2022-10-15T01:02:24.500Z,87.88
2022-10-15T01:04:51.253Z,87.87
2022-10-15T01:09:45.793Z,87.73
2022-10-15T01:12:54.392Z,87.84
2022-10-15T01:15:45.907Z,88.03
2022-10-15T01:18:21.469Z,88.10
2022-10-15T01:20:57.588Z,88.14
2022-10-15T01:23:56.817Z,88.13
2022-10-15T01:26:54.182Z,88.23
2022-10-15T01:29:42.625Z,88.31
2022-10-15T01:32:18.177Z,88.27
2022-10-15T01:34:54.227Z,88.54
2022-10-15T01:37:37.388Z,88.41
2022-10-15T01:40:16.694Z,88.37
2022-10-15T01:43:00.257Z,88.62
2022-10-15T01:45:45.109Z,88.44
2022-10-15T01:48:34.350Z,88.52
2022-10-15T01:51:04.369Z,88.62
2022-10-15T01:53:34.460Z,88.65
2022-10-15T01:56:09.531Z,88.60
2022-10-15T01:58:42.583Z,88.87
2022-10-15T02:01:09.967Z,88.73
2022-10-15T02:03:58.825Z,88.66
2022-10-15T02:06:33.785Z,88.89
2022-10-15T02:09:09.818Z,88.91
2022-10-15T02:12:15.182Z,89.10
2022-10-15T02:15:14.365Z,89.29
2022-10-15T02:17:52.283Z,89.15
2022-10-15T02:20:29.499Z,89.04
2022-10-15T02:23:07.175Z,89.16
2022-10-15T02:25:38.939Z,89.07
2022-10-15T02:28:08.230Z,89.28
2022-10-15T02:30:38.144Z,89.07
2022-10-15T02:33:04.408Z,89.25
2022-10-15T02:35:32.624Z,89.20
2022-10-15T02:38:04.863Z,89.61
2022-10-15T02:40:34.415Z,89.49
2022-10-15T02:43:05.677Z,89.57
2022-10-15T02:45:32.096Z,89.54
2022-10-15T02:47:58.785Z,89.50
2022-10-15T02:50:25.345Z,89.60
2022-10-15T02:52:52.199Z,89.77
2022-10-15T02:55:18.451Z,89.84
2022-10-15T02:57:44.708Z,89.82
2022-10-15T03:00:11.583Z,89.93
2022-10-15T03:02:38.947Z,89.88
2022-10-15T03:05:06.280Z,89.71
2022-10-15T03:07:32.608Z,89.82
2022-10-15T03:09:59.396Z,90.13
2022-10-15T03:12:27.002Z,90.12
2022-10-15T03:14:53.592Z,90.20
2022-10-15T03:17:21.151Z,90.25
2022-10-15T03:19:48.362Z,90.04
2022-10-15T03:22:15.072Z,90.34
2022-10-15T03:24:47.161Z,90.33
2022-10-15T03:27:16.690Z,90.27
2022-10-15T03:29:43.655Z,90.42
2022-10-15T03:32:10.992Z,90.28
2022-10-15T03:34:37.632Z,90.55
2022-10-15T03:37:04.259Z,90.47
2022-10-15T03:39:30.565Z,90.68
2022-10-15T03:41:59.671Z,90.52
2022-10-15T03:44:33.536Z,90.63
2022-10-15T03:47:15.794Z,90.65
2022-10-15T03:49:44.870Z,90.68
2022-10-15T03:52:11.275Z,90.70
2022-10-15T03:54:37.990Z,90.80
2022-10-15T03:57:04.510Z,90.84
2022-10-15T03:59:33.968Z,90.81
2022-10-15T04:02:01.896Z,90.84
2022-10-15T04:04:28.531Z,90.94
2022-10-15T04:06:54.960Z,91.00
2022-10-15T04:09:21.563Z,90.93
2022-10-15T04:11:48.319Z,91.21
2022-10-15T04:14:14.567Z,91.24
2022-10-15T04:16:41.487Z,91.29
2022-10-15T04:19:29.970Z,91.34
2022-10-15T04:22:03.083Z,91.20
2022-10-15T04:24:32.434Z,91.24
2022-10-15T04:26:58.712Z,91.11
2022-10-15T04:29:25.099Z,91.38
2022-10-15T04:31:51.374Z,91.33
2022-10-15T04:34:18.763Z,91.40
2022-10-15T04:36:45.029Z,91.02
2022-10-15T04:39:14.797Z,91.36
2022-10-15T04:41:43.116Z,91.29
2022-10-15T04:44:15.074Z,91.51
2022-10-15T04:46:44.750Z,91.64
2022-10-15T04:49:27.134Z,91.55
2022-10-15T04:51:53.486Z,91.62
2022-10-15T04:54:28.562Z,91.78
2022-10-15T04:57:04.398Z,91.70
2022-10-15T04:59:30.865Z,91.75
2022-10-15T05:02:13.176Z,92.05
2022-10-15T05:04:40.334Z,91.72
2022-10-15T05:07:06.709Z,91.96
2022-10-15T05:09:36.718Z,92.05
2022-10-15T05:12:03.455Z,91.89
2022-10-15T05:14:29.853Z,92.17
2022-10-15T05:17:05.307Z,92.25
2022-10-15T05:19:36.013Z,92.06
2022-10-15T05:22:02.338Z,92.04
2022-10-15T05:24:30.352Z,91.98
2022-10-15T05:27:10.716Z,92.08
2022-10-15T05:29:39.140Z,92.07
2022-10-15T05:32:05.652Z,91.99
2022-10-15T05:34:32.936Z,92.09
2022-10-15T05:37:02.416Z,92.06
2022-10-15T05:39:29.139Z,92.20
2022-10-15T05:41:55.500Z,91.99
2022-10-15T05:44:37.841Z,92.25
2022-10-15T05:47:04.163Z,92.36
2022-10-15T05:49:30.939Z,92.50
2022-10-15T05:52:03.922Z,92.45
2022-10-15T05:54:46.115Z,92.29
2022-10-15T05:57:12.346Z,92.26
2022-10-15T05:59:38.567Z,92.42
2022-10-15T06:02:05.103Z,92.38
2022-10-15T06:04:34.735Z,92.08
2022-10-15T06:07:02.212Z,92.06
2022-10-15T06:09:28.452Z,92.25
2022-10-15T06:11:54.713Z,92.40
2022-10-15T06:14:22.443Z,92.27
2022-10-15T06:16:50.006Z,92.39
2022-10-15T06:19:16.350Z,92.29
2022-10-15T06:21:43.189Z,92.23
2022-10-15T06:24:10.219Z,92.14
2022-10-15T06:26:36.785Z,92.36
2022-10-15T06:29:03.266Z,92.29
2022-10-15T06:31:30.527Z,92.52
2022-10-15T06:33:56.883Z,92.47
2022-10-15T06:36:26.012Z,92.49
2022-10-15T06:38:52.224Z,92.42
2022-10-15T06:41:18.478Z,92.38
2022-10-15T06:43:47.654Z,92.35
2022-10-15T06:46:13.907Z,92.27
2022-10-15T06:48:40.143Z,92.33
2022-10-15T06:51:06.417Z,92.17
2022-10-15T06:53:32.882Z,92.11
2022-10-15T06:56:03.475Z,91.99
2022-10-15T06:58:34.110Z,92.06
2022-10-15T07:01:02.002Z,91.90
2022-10-15T07:03:28.949Z,92.04
2022-10-15T07:05:55.418Z,92.04
2022-10-15T07:08:21.640Z,92.12
2022-10-15T07:10:47.939Z,92.05
2022-10-15T07:13:14.163Z,92.03
2022-10-15T07:15:40.493Z,92.13
2022-10-15T07:18:06.725Z,92.09
2022-10-15T07:20:33.010Z,92.10
2022-10-15T07:23:01.215Z,92.09
2022-10-15T07:25:31.088Z,92.07
2022-10-15T07:27:57.341Z,91.88
2022-10-15T07:30:26.959Z,91.89
2022-10-15T07:32:56.051Z,91.72
2022-10-15T07:35:22.433Z,91.64
2022-10-15T07:37:50.050Z,91.69
2022-10-15T07:40:17.959Z,91.78
2022-10-15T07:42:44.547Z,91.74
2022-10-15T07:45:10.849Z,91.63
2022-10-15T07:47:41.402Z,91.57
2022-10-15T07:50:08.034Z,91.71
2022-10-15T07:52:34.292Z,91.84
2022-10-15T07:55:01.634Z,91.85
2022-10-15T07:57:27.877Z,91.72
2022-10-15T07:59:54.122Z,91.74
2022-10-15T08:02:21.172Z,91.73
2022-10-15T08:04:47.740Z,91.76
2022-10-15T08:07:14.263Z,91.77
2022-10-15T08:09:40.520Z,91.66
2022-10-15T08:12:06.984Z,91.52
2022-10-15T08:14:35.134Z,91.63
2022-10-15T08:17:02.666Z,91.47
2022-10-15T08:19:28.966Z,91.38
2022-10-15T08:21:56.072Z,91.34
2022-10-15T08:24:23.123Z,91.08
2022-10-15T08:26:49.406Z,91.09
2022-10-15T08:29:15.653Z,91.08
2022-10-15T08:31:42.014Z,91.11
2022-10-15T08:34:08.618Z,91.09
2022-10-15T08:36:35.592Z,91.05
2022-10-15T08:39:01.922Z,91.14
2022-10-15T08:41:44.196Z,91.02
2022-10-15T08:44:27.014Z,90.67
2022-10-15T08:47:05.748Z,90.22
2022-10-15T08:49:41.996Z,90.14
2022-10-15T08:52:24.330Z,90.22
2022-10-15T08:54:52.370Z,90.09
2022-10-15T08:57:32.767Z,90.05
2022-10-15T09:00:11.976Z,90.11
2022-10-15T09:02:59.708Z,89.94
2022-10-15T09:05:42.113Z,89.94
2022-10-15T09:08:40.310Z,89.91
2022-10-15T09:11:12.885Z,89.76
2022-10-15T09:13:42.295Z,89.83
2022-10-15T09:16:17.865Z,89.64
2022-10-15T09:18:47.252Z,89.51
2022-10-15T09:21:14.326Z,89.41
2022-10-15T09:23:43.076Z,89.57
2022-10-15T09:26:33.140Z,89.50
2022-10-15T09:29:21.509Z,89.29
2022-10-15T09:31:53.918Z,89.24
2022-10-15T09:34:33.486Z,89.18
2022-10-15T09:37:33.726Z,89.26
2022-10-15T09:40:28.992Z,89.00
2022-10-15T09:42:57.621Z,89.12
2022-10-15T09:45:23.919Z,88.98
2022-10-15T09:47:51.195Z,88.61
2022-10-15T09:53:03.988Z,88.77
2022-10-15T09:55:52.528Z,88.58
2022-10-15T09:58:41.351Z,88.43
2022-10-15T10:01:20.323Z,88.24
2022-10-15T10:04:06.660Z,88.22
2022-10-15T10:06:48.281Z,88.00
2022-10-15T10:09:19.622Z,88.10
2022-10-15T10:11:55.468Z,87.74
2022-10-15T10:14:29.108Z,87.70
2022-10-15T10:17:19.266Z,87.72
2022-10-15T10:20:21.519Z,87.59
2022-10-15T10:22:58.908Z,87.31
2022-10-15T10:25:25.423Z,87.29
2022-10-15T10:27:53.517Z,87.08
2022-10-15T10:30:20.262Z,87.17
2022-10-15T10:32:54.378Z,86.98
2022-10-15T10:35:23.363Z,86.84
2022-10-15T10:37:51.127Z,86.42
2022-10-15T10:40:34.569Z,86.44
2022-10-15T10:43:26.293Z,85.46
2022-10-15T10:46:19.545Z,86.12
2022-10-15T10:48:51.077Z,86.08
2022-10-15T10:51:20.536Z,86.14
2022-10-15T10:53:58.608Z,85.71
2022-10-15T10:56:32.106Z,85.74
2022-10-15T10:59:01.199Z,85.55
2022-10-15T11:01:28.377Z,85.51
2022-10-15T11:03:55.298Z,84.29
2022-10-15T11:06:42.783Z,84.44
2022-10-15T11:09:29.135Z,83.97
2022-10-15T11:12:17.874Z,83.74
2022-10-15T11:15:09.514Z,82.22
2022-10-15T11:17:41.937Z,82.69
2022-10-15T11:20:47.490Z,82.31
2022-10-15T11:23:26.504Z,82.12
2022-10-15T11:25:53.863Z,81.47
2022-10-15T11:28:41.655Z,81.76
2022-10-15T11:33:53.887Z,81.72
2022-10-15T11:36:38.226Z,82.05
2022-10-15T11:39:20.721Z,81.59
2022-10-15T11:42:16.650Z,81.77
2022-10-15T11:45:03.192Z,81.30
2022-10-15T11:48:01.539Z,80.95
2022-10-15T11:50:41.171Z,81.13
2022-10-15T11:53:39.354Z,80.57
2022-10-15T11:56:16.225Z,80.14
2022-10-15T11:58:50.702Z,80.33
2022-10-15T12:01:29.933Z,79.56
2022-10-15T12:04:02.858Z,78.95
2022-10-15T12:06:38.330Z,79.47
2022-10-15T12:09:07.199Z,78.97
2022-10-15T12:11:47.584Z,78.46
2022-10-15T12:14:40.068Z,78.08
2022-10-15T12:17:25.273Z,78.42
2022-10-15T12:20:15.190Z,78.04
2022-10-15T12:22:47.416Z,78.08
2022-10-15T12:25:35.565Z,78.22
2022-10-15T12:28:05.073Z,78.40
2022-10-15T12:30:33.985Z,78.18
2022-10-15T12:33:02.084Z,77.89
2022-10-15T12:35:32.560Z,77.91
2022-10-15T12:38:25.320Z,77.82
2022-10-15T12:40:59.071Z,77.80
2022-10-15T12:43:26.219Z,77.70
2022-10-15T12:45:59.667Z,77.50
2022-10-15T12:48:33.189Z,77.80
2022-10-15T12:51:15.433Z,78.00
2022-10-15T12:53:43.445Z,77.73
2022-10-15T12:56:09.899Z,77.92
2022-10-15T12:58:41.236Z,77.72
2022-10-15T13:01:13.392Z,77.83
2022-10-15T13:03:45.877Z,77.87
2022-10-15T13:06:39.460Z,78.13
2022-10-15T13:09:08.775Z,78.12
2022-10-15T13:11:39.434Z,78.34
2022-10-15T13:14:12.245Z,78.49
2022-10-15T13:16:44.154Z,78.31
2022-10-15T13:19:22.433Z,78.25
2022-10-15T13:22:19.869Z,78.43
2022-10-15T13:24:46.133Z,78.38
2022-10-15T13:27:25.571Z,78.47
2022-10-15T13:29:57.474Z,78.38
2022-10-15T13:32:26.876Z,78.26
2022-10-15T13:34:55.307Z,78.14
2022-10-15T13:37:30.339Z,78.20
2022-10-15T13:39:59.623Z,78.19
2022-10-15T13:42:27.438Z,78.09
2022-10-15T13:45:16.883Z,78.09
2022-10-15T13:47:49.660Z,78.06
2022-10-15T13:50:19.129Z,78.04
2022-10-15T13:52:58.584Z,78.06
2022-10-15T13:55:29.772Z,78.00
2022-10-15T13:58:02.613Z,78.16
2022-10-15T14:00:32.798Z,78.11
2022-10-15T14:03:16.895Z,78.27
2022-10-15T14:05:45.636Z,78.30
2022-10-15T14:08:28.083Z,78.30
2022-10-15T14:10:57.631Z,78.22
2022-10-15T14:13:24.842Z,78.37
2022-10-15T14:16:14.738Z,78.54
2022-10-15T14:18:48.227Z,78.53
2022-10-15T14:21:28.013Z,78.51
2022-10-15T14:24:04.659Z,78.63
2022-10-15T14:26:31.195Z,78.70
2022-10-15T14:28:57.911Z,78.64
2022-10-15T14:31:40.077Z,78.81
2022-10-15T14:34:30.915Z,78.89
2022-10-15T14:36:57.271Z,78.88
2022-10-15T14:39:35.643Z,78.85
2022-10-15T14:42:05.056Z,78.94
2022-10-15T14:44:49.128Z,78.92
2022-10-15T14:47:33.685Z,78.93
2022-10-15T14:50:03.492Z,79.00
2022-10-15T14:55:13.892Z,79.07
2022-10-15T14:57:43.925Z,79.13
2022-10-15T15:00:32.954Z,79.20
2022-10-15T15:03:03.608Z,79.34
2022-10-15T15:05:29.931Z,79.41
2022-10-15T15:07:57.203Z,79.46
2022-10-15T15:10:25.956Z,79.48
2022-10-15T15:12:56.513Z,79.60
2022-10-15T15:15:26.729Z,79.81
2022-10-15T15:17:53.007Z,79.84
2022-10-15T15:20:20.538Z,80.00
2022-10-15T15:22:53.230Z,80.14
2022-10-15T15:25:36.493Z,80.30
2022-10-15T15:28:03.955Z,80.13
2022-10-15T15:30:33.564Z,80.36
2022-10-15T15:33:00.102Z,80.45
2022-10-15T15:35:38.873Z,80.68
2022-10-15T15:38:07.931Z,80.76
2022-10-15T15:40:35.579Z,80.78
2022-10-15T15:43:02.024Z,80.85
2022-10-15T15:45:28.849Z,81.03
2022-10-15T15:48:01.429Z,81.06
2022-10-15T15:50:27.701Z,81.19
2022-10-15T15:52:54.494Z,81.30
2022-10-15T15:55:20.812Z,81.41
2022-10-15T15:57:47.144Z,81.49
2022-10-15T16:00:14.184Z,81.61
2022-10-15T16:02:41.355Z,81.81
2022-10-15T16:05:10.227Z,82.08
2022-10-15T16:07:36.451Z,82.34
2022-10-15T16:10:05.594Z,82.32
2022-10-15T16:12:33.433Z,82.45
2022-10-15T16:15:00.483Z,82.73
2022-10-15T16:17:27.194Z,82.95
2022-10-15T16:19:53.710Z,83.27
2022-10-15T16:22:20.035Z,83.48
2022-10-15T16:24:46.233Z,84.34
2022-10-15T16:27:12.519Z,84.24
2022-10-15T16:29:38.783Z,84.69
2022-10-15T16:32:05.139Z,84.86
2022-10-15T16:34:31.485Z,85.03
2022-10-15T16:36:57.946Z,85.53
2022-10-15T16:39:24.196Z,85.63
2022-10-15T16:41:50.541Z,85.51
2022-10-15T16:44:17.080Z,86.15
2022-10-15T16:46:45.030Z,85.69
2022-10-15T16:49:11.254Z,85.93
2022-10-15T16:51:39.934Z,86.37
2022-10-15T16:54:14.671Z,86.89
2022-10-15T16:56:41.834Z,86.63
2022-10-15T16:59:08.662Z,86.94
2022-10-15T17:01:35.906Z,87.07
2022-10-15T17:04:02.446Z,87.21
2022-10-15T17:06:30.011Z,87.10
2022-10-15T17:08:58.627Z,87.26
2022-10-15T17:11:28.702Z,87.55
2022-10-15T17:13:58.200Z,87.86
2022-10-15T17:16:27.923Z,87.99
2022-10-15T17:18:55.562Z,87.87
2022-10-15T17:21:25.170Z,88.08
2022-10-15T17:23:53.872Z,87.97
2022-10-15T17:26:23.459Z,88.39
2022-10-15T17:28:50.726Z,88.18
2022-10-15T17:31:20.548Z,88.33
2022-10-15T17:33:48.417Z,88.43
2022-10-15T17:36:14.610Z,88.58
2022-10-15T17:38:40.910Z,88.95
2022-10-15T17:41:10.093Z,88.87
2022-10-15T17:43:39.921Z,88.77
2022-10-15T17:46:10.924Z,89.11
2022-10-15T17:48:38.792Z,88.97
2022-10-15T17:51:08.789Z,89.23
2022-10-15T17:53:35.251Z,89.13
2022-10-15T17:56:13.941Z,89.38
2022-10-15T17:58:40.591Z,89.65
2022-10-15T18:01:20.499Z,89.68
2022-10-15T18:03:55.334Z,89.91
2022-10-15T18:06:26.013Z,89.88
2022-10-15T18:08:52.296Z,90.16
2022-10-15T18:11:24.963Z,90.22
2022-10-15T18:13:51.637Z,90.21
2022-10-15T18:16:19.398Z,90.51
2022-10-15T18:18:45.693Z,90.30
2022-10-15T18:21:16.289Z,90.41
2022-10-15T18:23:43.044Z,90.62
2022-10-15T18:26:18.781Z,90.47
2022-10-15T18:28:48.334Z,90.61
2022-10-15T18:31:15.913Z,90.58
2022-10-15T18:33:43.837Z,90.88
2022-10-15T18:36:18.900Z,90.88
2022-10-15T18:38:45.267Z,91.08
2022-10-15T18:41:13.867Z,91.22
2022-10-15T18:43:40.137Z,91.25
2022-10-15T18:46:06.435Z,91.44
2022-10-15T18:48:33.006Z,91.30
2022-10-15T18:51:00.711Z,91.37
2022-10-15T18:53:26.996Z,91.40
2022-10-15T18:55:54.461Z,91.39
2022-10-15T18:58:20.713Z,91.58
2022-10-15T19:00:46.980Z,91.49
2022-10-15T19:03:14.642Z,91.52
2022-10-15T19:05:40.989Z,91.82
2022-10-15T19:08:07.255Z,91.82
2022-10-15T19:10:33.523Z,91.66
2022-10-15T19:12:59.785Z,91.72
2022-10-15T19:15:27.820Z,91.74
2022-10-15T19:17:54.400Z,91.96
2022-10-15T19:20:21.093Z,91.86
2022-10-15T19:22:47.316Z,91.80
2022-10-15T19:25:13.888Z,91.75
2022-10-15T19:27:41.340Z,91.78
2022-10-15T19:30:07.974Z,91.97
2022-10-15T19:32:34.210Z,91.98
2022-10-15T19:35:01.007Z,92.16
2022-10-15T19:37:27.574Z,92.03
2022-10-15T19:39:54.018Z,92.08
2022-10-15T19:42:20.827Z,92.13
2022-10-15T19:44:47.724Z,92.19
2022-10-15T19:47:18.811Z,92.22
2022-10-15T19:49:45.201Z,92.30
2022-10-15T19:52:11.798Z,92.17
2022-10-15T19:54:39.310Z,92.28
2022-10-15T19:57:05.671Z,92.45
2022-10-15T19:59:31.922Z,92.35
2022-10-15T20:01:58.238Z,92.43
2022-10-15T20:04:24.471Z,92.40
2022-10-15T20:06:52.115Z,92.44
2022-10-15T20:09:18.543Z,92.52
2022-10-15T20:11:44.803Z,92.47
2022-10-15T20:14:11.061Z,92.50
2022-10-15T20:16:37.315Z,92.54
2022-10-15T20:19:04.867Z,92.60
2022-10-15T20:21:31.934Z,92.60
2022-10-15T20:23:59.189Z,92.67
2022-10-15T20:26:25.472Z,92.63
2022-10-15T20:28:52.899Z,92.65
2022-10-15T20:31:20.684Z,92.65
2022-10-15T20:33:48.559Z,92.69
2022-10-15T20:36:20.052Z,92.63
2022-10-15T20:38:50.862Z,92.74
2022-10-15T20:41:18.037Z,92.71
2022-10-15T20:43:45.220Z,92.75
2022-10-15T20:46:15.764Z,92.75
2022-10-15T20:48:44.073Z,92.85
2022-10-15T20:51:15.113Z,92.79
2022-10-15T20:53:41.893Z,92.73
2022-10-15T20:56:08.441Z,92.86
2022-10-15T20:58:34.796Z,93.03
2022-10-15T21:01:02.067Z,93.10
2022-10-15T21:03:30.278Z,93.15
2022-10-15T21:05:56.579Z,93.04
2022-10-15T21:08:23.856Z,93.44
2022-10-15T21:10:51.108Z,93.17
2022-10-15T21:13:17.349Z,93.22
2022-10-15T21:15:43.617Z,93.33
2022-10-15T21:18:09.964Z,93.34
2022-10-15T21:20:36.197Z,93.42
2022-10-15T21:23:02.444Z,93.35
2022-10-15T21:25:28.772Z,93.42
2022-10-15T21:27:55.143Z,93.48
2022-10-15T21:30:21.442Z,93.64
2022-10-15T21:32:47.694Z,93.62
2022-10-15T21:35:14.038Z,93.74
2022-10-15T21:37:40.273Z,94.49
2022-10-15T21:40:07.556Z,94.23
2022-10-15T21:42:34.123Z,94.37
2022-10-15T21:45:00.774Z,94.29
2022-10-15T21:47:27.305Z,94.45
2022-10-15T21:49:53.794Z,94.52
2022-10-15T21:52:20.015Z,94.51
2022-10-15T21:54:46.291Z,94.63
2022-10-15T21:57:12.510Z,94.51
2022-10-15T21:59:39.858Z,94.56
2022-10-15T22:02:06.235Z,94.54
2022-10-15T22:04:34.275Z,94.44
2022-10-15T22:07:01.030Z,94.53
2022-10-15T22:09:27.382Z,94.63
2022-10-15T22:11:53.776Z,94.69
2022-10-15T22:14:20.074Z,94.68
2022-10-15T22:16:46.390Z,94.65
2022-10-15T22:19:15.319Z,94.93
2022-10-15T22:21:42.390Z,94.71
2022-10-15T22:24:18.965Z,95.01
2022-10-15T22:26:48.542Z,95.09
2022-10-15T22:29:32.999Z,95.10
2022-10-15T22:32:02.715Z,95.15
2022-10-15T22:34:29.451Z,95.50
2022-10-15T22:36:55.717Z,95.80
2022-10-15T22:39:21.943Z,95.43
2022-10-15T22:41:48.543Z,95.44
2022-10-15T22:44:18.266Z,95.81
2022-10-15T22:46:45.406Z,95.83
2022-10-15T22:49:13.600Z,95.75
2022-10-15T22:51:40.582Z,95.97
2022-10-15T22:54:07.301Z,96.07
2022-10-15T22:56:33.907Z,96.18
2022-10-15T22:59:00.293Z,96.25
2022-10-15T23:01:31.897Z,96.07
2022-10-15T23:04:02.718Z,96.05
2022-10-15T23:06:31.529Z,96.11
2022-10-15T23:08:58.285Z,96.26
2022-10-15T23:11:31.237Z,96.46
2022-10-15T23:14:00.516Z,96.37
2022-10-15T23:16:32.386Z,96.50
2022-10-15T23:19:01.122Z,96.60
2022-10-15T23:21:38.975Z,96.50
2022-10-15T23:24:05.811Z,96.70
2022-10-15T23:26:32.106Z,96.35
2022-10-15T23:29:00.338Z,96.73
2022-10-15T23:31:32.274Z,96.58
2022-10-15T23:33:59.917Z,96.66
2022-10-15T23:36:27.744Z,96.61
2022-10-15T23:38:57.096Z,96.55
2022-10-15T23:41:24.155Z,96.60
2022-10-15T23:43:50.818Z,96.82
2022-10-15T23:46:18.160Z,96.70
2022-10-15T23:48:45.646Z,96.73
2022-10-15T23:51:36.622Z,96.66
2022-10-15T23:54:09.109Z,96.71
2022-10-15T23:56:35.363Z,96.81
2022-10-15T23:59:02.688Z,96.85
